Latest Weather Observations for Viewbank

IDV60801

Issued at 9:31 pm EST Monday 25 May 2015 (issued every 30 minutes, with the page automatically refreshed every 10 minutes)

About weather observations | Map of weather stations | Latest weather observations for VIC | Other Formats
Station Details ID: 086068 Name: VIEWBANK Lat: -37.74 Lon: 145.10 Height: 66.1 m
Data from the previous 72 hours. | See also: Recent months at Viewbank
Date/Time
EST
Temp
°C
App
Temp
°C
Dew
Point
Rel
Hum
%
Delta-T
°C
Wind Press
QNH
hPa
Press
MSL
hPa
Rain
since 9 am
mm
Dir
 
Spd
km/h
Gust
km/h
Spd
kts
Gust
kts
25/09:30pm 8.1 6.4 7.7 97 0.2 ENE 6 7 3 4 1030.5 1030.5 0.0
25/09:00pm 8.4 5.7 7.5 94 0.4 ENE 11 15 6 8 1030.5 1030.5 0.0
25/08:30pm 8.7 6.5 7.8 94 0.4 ENE 9 13 5 7 1030.4 1030.4 0.0
25/08:00pm 9.2 7.1 8.1 93 0.5 ENE 9 11 5 6 1030.3 1030.3 0.0
25/07:30pm 9.8 8.0 7.9 88 0.9 ENE 7 9 4 5 1030.2 1030.2 0.0
25/07:00pm 10.6 9.3 7.7 82 1.4 ENE 4 7 2 4 1030.0 1030.0 0.0
25/06:30pm 11.2 9.4 7.3 77 1.9 NE 6 7 3 4 1029.6 1029.6 0.0
25/06:00pm 11.9 9.5 7.2 73 2.3 ENE 9 11 5 6 1029.2 1029.2 0.0
25/05:30pm 12.8 10.8 7.0 68 2.8 ENE 7 9 4 5 1028.9 1028.9 0.0
25/05:00pm 13.5 12.0 6.8 64 3.2 ENE 4 7 2 4 1028.9 1028.9 0.0
25/04:30pm 14.6 13.1 6.9 60 3.8 ENE 4 7 2 4 1028.9 1028.9 0.0
25/04:00pm 15.0 13.6 7.1 59 3.9 NE 4 11 2 6 1028.9 1028.9 0.0
25/03:30pm 15.0 12.6 6.8 58 4.0 N 9 15 5 8 1029.0 1029.0 0.0
25/03:00pm 15.1 12.6 6.4 56 4.2 N 9 15 5 8 1028.9 1028.9 0.0
25/02:30pm 15.8 13.7 6.5 54 4.5 NNE 7 11 4 6 1029.3 1029.3 0.0
25/02:00pm 15.5 13.1 6.8 56 4.2 N 9 15 5 8 1029.5 1029.5 0.0
25/01:30pm 15.0 11.8 6.8 58 4.0 N 13 20 7 11 1029.8 1029.8 0.0
25/01:00pm 14.1 11.6 6.5 60 3.6 NNE 9 17 5 9 1030.1 1030.1 0.0
25/12:30pm 13.4 11.3 6.7 64 3.2 N 7 11 4 6 1030.4 1030.4 0.0
25/12:00pm 13.7 12.9 8.3 70 2.7 NE 2 6 1 3 1030.8 1030.8 0.0
25/11:00am 11.3 9.7 8.0 80 1.6 ENE 6 7 3 4 1031.7 1031.7 0.0
25/10:30am 10.3 8.6 7.4 82 1.4 ENE 6 7 3 4 1031.9 1031.9 0.0
25/10:00am 9.3 7.5 7.1 86 1.0 ENE 6 7 3 4 1031.6 1031.6 0.0
25/09:30am 8.4 6.2 6.4 87 0.9 ENE 7 9 4 5 1031.7 1031.7 0.0
25/09:00am 8.0 5.4 6.3 89 0.8 E 9 9 5 5 1031.8 1031.8 0.0
25/08:30am 7.3 5.1 6.4 94 0.4 ENE 7 11 4 6 1031.8 1031.8 0.0
25/08:00am 7.0 5.8 6.4 96 0.3 ENE 2 7 1 4 1031.5 1031.5 0.0
25/07:30am 6.8 4.9 6.5 98 0.1 ENE 6 9 3 5 1031.2 1031.2 0.0
25/07:00am 6.8 5.2 6.4 97 0.2 ENE 4 7 2 4 1031.6 1031.6 0.0
25/06:30am 6.7 4.7 6.1 96 0.3 ENE 6 7 3 4 1031.2 1031.2 0.0
25/06:00am 6.9 5.3 6.2 95 0.3 NNE 4 7 2 4 1031.0 1031.0 0.0
25/05:30am 7.3 5.2 5.9 91 0.6 NE 6 9 3 5 1030.7 1030.7 0.0
25/05:00am 7.0 4.4 5.9 93 0.5 ENE 9 11 5 6 1029.8 1029.8 0.0
25/04:30am 7.1 4.5 6.0 93 0.5 ENE 9 13 5 7 1030.2 1030.2 0.0
25/04:00am 7.1 4.1 6.2 94 0.4 E 11 15 6 8 1030.2 1030.2 0.0
25/03:30am 6.4 4.2 6.0 97 0.2 ENE 7 11 4 6 1030.3 1030.3 0.0
25/03:00am 6.2 3.9 5.9 98 0.1 ENE 7 9 4 5 1030.4 1030.4 0.0
25/02:30am 6.4 5.1 6.1 98 0.1 ENE 2 7 1 4 1030.8 1030.8 0.0
25/02:00am 6.6 5.6 5.6 93 0.4 CALM 0 0 0 0 1030.9 1030.9 0.0
25/01:30am 6.6 4.4 5.4 92 0.5 ENE 6 9 3 5 1030.7 1030.7 0.0
25/01:00am 6.7 4.3 5.2 90 0.7 NE 7 9 4 5 1030.6 1030.6 0.0
25/12:30am 6.8 5.7 5.1 89 0.7 CALM 0 6 0 3 1031.1 1031.1 0.0
25/12:00am 7.8 6.6 4.6 80 1.4 CALM 0 0 0 0 1031.1 1031.1 0.0
 
Date/Time
EST
Temp
°C
App
Temp
°C
Dew
Point
Rel
Hum
%
Delta-T
°C
Wind Press
QNH
hPa
Press
MSL
hPa
Rain
since 9 am
mm
Dir
 
Spd
km/h
Gust
km/h
Spd
kts
Gust
kts
24/11:30pm 7.7 6.2 4.8 82 1.3 NE 2 7 1 4 1031.1 1031.1 0.0
24/11:00pm 8.3 7.2 4.9 79 1.5 CALM 0 4 0 2 1031.3 1031.3 0.0
24/10:30pm 8.7 7.6 4.9 77 1.7 CALM 0 0 0 0 1031.4 1031.4 0.0
24/10:00pm 9.6 7.3 5.0 73 2.1 NE 6 7 3 4 1031.2 1031.2 0.0
24/09:30pm 10.5 7.7 5.1 69 2.5 N 9 15 5 8 1031.0 1031.0 0.0
24/09:00pm 10.9 7.6 4.8 66 2.7 N 11 19 6 10 1031.0 1031.0 0.0
24/08:30pm 11.8 7.8 5.0 63 3.1 NNW 15 24 8 13 1031.1 1031.1 0.0
24/08:00pm 11.7 8.1 5.1 64 3.0 NNW 13 19 7 10 1030.9 1030.9 0.0
24/07:30pm 11.8 8.5 4.8 62 3.2 N 11 19 6 10 1030.8 1030.8 0.0
24/07:00pm 11.8 9.1 3.8 58 3.5 N 7 13 4 7 1030.6 1030.6 0.0
24/06:30pm 12.0 9.8 3.5 56 3.8 NNE 4 13 2 7 1030.2 1030.2 0.0
24/06:00pm 12.2 9.5 3.9 57 3.7 NNE 7 11 4 6 1029.9 1029.9 0.0
24/05:30pm 13.0 10.4 4.4 56 3.9 N 7 13 4 7 1029.8 1029.8 0.0
24/05:00pm 13.5 10.7 5.2 57 3.9 N 9 17 5 9 1029.7 1029.7 0.0
24/04:30pm 14.5 11.6 4.5 51 4.6 N 9 15 5 8 1029.9 1029.9 0.0
24/04:00pm 15.2 12.1 3.4 45 5.3 N 9 17 5 9 1029.9 1029.9 0.0
24/03:30pm 15.5 12.6 4.5 48 5.2 N 9 17 5 9 1029.7 1029.7 0.0
24/03:00pm 16.6 14.5 6.7 52 4.9 NNE 7 13 4 7 1029.5 1029.5 0.0
24/02:30pm 15.9 14.0 7.7 58 4.1 ENE 7 11 4 6 1029.3 1029.3 0.0
24/02:00pm 14.9 12.7 7.7 62 3.6 ENE 9 13 5 7 1029.4 1029.4 0.0
24/01:30pm 14.3 12.5 8.0 66 3.1 ESE 7 11 4 6 1029.6 1029.6 0.0
24/01:00pm 12.8 10.5 7.3 69 2.7 E 9 13 5 7 1030.0 1030.0 0.0
24/12:30pm 12.6 10.5 8.3 75 2.1 ENE 9 13 5 7 1030.4 1030.4 0.0
24/12:00pm 11.0 9.3 8.4 84 1.3 E 7 11 4 6 1030.9 1030.9 0.0
24/11:30am 8.9 6.6 7.5 91 0.7 E 9 15 5 8 1031.6 1031.6 0.0
24/11:00am 8.6 6.6 8.5 99 0.0 E 9 13 5 7 1032.0 1032.0 0.0
24/10:30am 7.4 5.1 7.3 99 0.0 E 9 13 5 7 1032.3 1032.3 0.0
24/10:00am 6.0 3.8 6.0 100 0.0 ENE 7 11 4 6 1032.3 1032.3 0.0
24/09:30am 6.0 4.7 6.0 100 0.0 NE 2 7 1 4 1032.4 1032.4 0.0
24/09:00am 5.8 4.1 5.8 100 0.0 NE 4 9 2 5 1032.3 1032.3 0.0
24/08:30am 5.5 3.3 5.5 100 0.0 NNE 6 9 3 5 1031.8 1031.8 0.0
24/08:00am 5.7 3.6 5.7 100 0.0 NE 6 11 3 6 1031.5 1031.5 0.0
24/07:30am 5.6 3.3 5.6 100 0.0 ENE 7 9 4 5 1031.3 1031.3 0.0
24/07:00am 5.5 3.3 5.5 100 0.0 E 6 7 3 4 1031.2 1031.2 0.0
24/06:30am 5.6 3.5 5.6 100 0.0 E 6 9 3 5 1031.2 1031.2 0.0
24/06:00am 5.6 3.5 5.6 100 0.0 E 6 7 3 4 1030.9 1030.9 0.0
24/05:30am 5.5 2.8 5.5 100 0.0 E 9 11 5 6 1030.7 1030.7 0.0
24/05:00am 4.9 2.4 4.9 100 0.0 E 7 9 4 5 1030.7 1030.7 0.0
24/04:30am 4.5 2.0 4.5 100 0.0 E 7 9 4 5 1030.7 1030.7 0.0
24/04:00am 4.2 1.8 4.2 100 0.0 E 6 9 3 5 1030.5 1030.5 0.0
24/03:30am 4.0 2.7 4.0 100 0.0 CALM 0 0 0 0 1030.5 1030.5 0.0
24/03:00am 3.8 1.1 3.8 100 0.0 ENE 7 7 4 4 1030.6 1030.6 0.0
24/02:30am 3.9 1.4 3.9 100 0.0 ENE 6 9 3 5 1030.9 1030.9 0.0
24/02:00am 3.5 1.0 3.5 100 0.0 ENE 6 7 3 4 1031.1 1031.1 0.0
24/01:30am 3.4 0.6 3.4 100 0.0 NE 7 7 4 4 1031.1 1031.1 0.0
24/01:00am 3.8 2.4 3.8 100 0.0 CALM 0 0 0 0 1031.4 1031.4 0.0
24/12:30am 4.0 2.7 3.9 99 0.0 CALM 0 0 0 0 1031.6 1031.6 0.0
24/12:00am 4.5 3.3 4.4 99 0.0 CALM 0 6 0 3 1031.7 1031.7 0.0
 
Date/Time
EST
Temp
°C
App
Temp
°C
Dew
Point
Rel
Hum
%
Delta-T
°C
Wind Press
QNH
hPa
Press
MSL
hPa
Rain
since 9 am
mm
Dir
 
Spd
km/h
Gust
km/h
Spd
kts
Gust
kts
23/11:30pm 4.8 3.6 4.7 99 0.0 CALM 0 2 0 1 1031.7 1031.7 0.0
23/11:00pm 5.1 3.2 5.0 99 0.0 W 4 7 2 4 1031.7 1031.7 0.0
23/10:30pm 5.9 4.6 5.8 99 0.0 W 2 7 1 4 1031.9 1031.9 0.0
23/10:00pm 6.1 5.2 6.0 99 0.0 CALM 0 0 0 0 1032.0 1032.0 0.0
23/09:30pm 6.8 6.0 6.4 97 0.2 CALM 0 0 0 0 1032.2 1032.2 0.0
23/09:00pm 7.2 6.3 6.1 93 0.5 CALM 0 0 0 0 1032.2 1032.2 0.0
23/08:30pm 7.9 7.1 6.7 92 0.6 CALM 0 0 0 0 1032.1 1032.1 0.0
23/08:00pm 8.2 7.4 6.5 89 0.8 CALM 0 6 0 3 1031.9 1031.9 0.0
23/07:30pm 8.5 6.6 6.6 88 0.9 S 6 7 3 4 1031.8 1031.8 0.0
23/07:00pm 8.8 6.7 6.8 87 0.9 SW 7 9 4 5 1031.6 1031.6 0.0
23/06:30pm 9.2 7.1 6.8 85 1.1 WSW 7 9 4 5 1031.5 1031.5 0.0
23/06:00pm 9.4 6.9 6.5 82 1.3 WSW 9 11 5 6 1031.4 1031.4 0.0
23/05:30pm 9.9 7.3 6.2 78 1.7 WSW 9 13 5 7 1031.3 1031.3 0.0
23/05:00pm 10.8 8.3 6.4 74 2.0 SW 9 13 5 7 1031.2 1031.2 0.0
23/04:30pm 11.4 8.8 6.1 70 2.5 WSW 9 15 5 8 1031.3 1031.3 0.0
23/04:00pm 12.2 9.2 6.0 66 2.9 SW 11 19 6 10 1031.5 1031.5 0.0
23/03:30pm 12.8 9.5 6.2 64 3.1 SW 13 22 7 12 1031.3 1031.3 0.0
23/03:00pm 13.4 10.5 6.5 63 3.3 SW 11 15 6 8 1031.3 1031.3 0.0
23/02:30pm 13.6 10.5 5.7 59 3.7 SW 11 17 6 9 1031.2 1031.2 0.0
23/02:00pm 13.4 10.2 5.3 58 3.8 SSW 11 15 6 8 1031.3 1031.3 0.0
23/01:30pm 13.4 10.8 6.0 61 3.5 S 9 15 5 8 1031.5 1031.5 0.0
23/01:00pm 13.3 10.7 5.9 61 3.5 S 9 13 5 7 1031.8 1031.8 0.0
23/12:30pm 13.2 11.0 6.3 63 3.3 S 7 13 4 7 1032.0 1032.0 0.0
23/12:00pm 13.3 11.7 6.4 63 3.3 S 4 9 2 5 1032.4 1032.4 0.0
23/11:30am 11.7 8.6 5.6 66 2.8 SSW 11 17 6 9 1033.0 1033.0 0.0
23/11:00am 11.7 9.0 5.8 67 2.7 SW 9 15 5 8 1033.3 1033.3 0.0
23/10:30am 12.1 9.8 5.9 66 2.9 SSE 7 13 4 7 1033.4 1033.4 0.0
23/10:00am 11.0 8.8 5.1 67 2.7 S 6 11 3 6 1033.5 1033.5 0.0
23/09:30am 10.7 8.0 5.5 70 2.4 SE 9 13 5 7 1033.6 1033.6 0.0
23/09:00am 10.4 9.1 6.0 74 2.0 SE 2 7 1 4 1033.5 1033.5 0.0
23/08:30am 9.9 7.7 5.3 73 2.1 ESE 6 9 3 5 1033.3 1033.3 0.0
23/08:00am 9.6 8.1 5.2 74 2.0 ESE 2 6 1 3 1032.9 1032.9 0.0
23/07:30am 9.5 8.3 4.7 72 2.1 CALM 0 6 0 3 1032.7 1032.7 0.0
23/07:00am 9.9 7.4 4.7 70 2.3 S 7 11 4 6 1032.6 1032.6 0.0
23/06:30am 10.1 7.7 5.1 71 2.3 S 7 11 4 6 1032.4 1032.4 0.0
23/06:00am 9.7 8.6 4.9 72 2.1 CALM 0 0 0 0 1032.1 1032.1 0.0
23/05:30am 9.9 7.6 4.7 70 2.3 SE 6 9 3 5 1031.9 1031.9 0.0
23/05:00am 9.9 8.0 4.7 70 2.3 S 4 7 2 4 1031.8 1031.8 0.0
23/04:30am 10.1 7.9 5.1 71 2.3 S 6 7 3 4 1031.7 1031.7 0.0
23/04:00am 10.3 7.9 5.1 70 2.3 S 7 11 4 6 1031.5 1031.5 0.0
23/03:30am 10.4 8.5 5.0 69 2.5 S 4 9 2 5 1031.6 1031.6 0.0
23/03:00am 10.4 7.2 5.2 70 2.3 SSW 11 15 6 8 1031.7 1031.7 0.0
23/02:30am 10.5 8.3 5.3 70 2.4 S 6 9 3 5 1031.8 1031.8 0.0
23/02:00am 10.5 8.3 5.3 70 2.4 SE 6 9 3 5 1031.9 1031.9 0.0
23/01:30am 10.7 8.6 5.7 71 2.3 SSE 6 11 3 6 1031.8 1031.8 0.0
23/01:00am 10.6 9.0 6.2 74 2.0 SSW 4 7 2 4 1031.9 1031.9 0.0
23/12:30am 10.7 8.4 5.9 72 2.2 SSW 7 11 4 6 1032.1 1032.1 0.0
23/12:00am 10.8 8.6 6.0 72 2.2 SSW 7 9 4 5 1032.3 1032.3 0.0
 
Date/Time
EST
Temp
°C
App
Temp
°C
Dew
Point
Rel
Hum
%
Delta-T
°C
Wind Press
QNH
hPa
Press
MSL
hPa
Rain
since 9 am
mm
Dir
 
Spd
km/h
Gust
km/h
Spd
kts
Gust
kts
22/11:30pm 10.7 8.6 5.7 71 2.3 S 6 7 3 4 1032.3 1032.3 0.0
22/11:00pm 10.7 8.4 5.5 70 2.4 SSW 7 9 4 5 1032.0 1032.0 0.0
22/10:30pm 10.7 8.4 5.5 70 2.4 S 7 9 4 5 1032.2 1032.2 0.0
22/10:00pm 10.9 8.2 5.4 69 2.5 S 9 17 5 9 1032.1 1032.1 0.0

Other Formats:

Comma delimited format used in spreadsheet applications
http://www.bom.gov.au/fwo/IDV60801/IDV60801.95874.axf

JavaScript Object Notation format (JSON) in row-major order
http://www.bom.gov.au/fwo/IDV60801/IDV60801.95874.json